KDSM/DSM METAR and TAF weather

Enter ICAO airport designator
Station Type Date Time Source
KDSM METAR 2022/07/03 13:54 UTC NOAA

KDSM 031354Z 15007KT 10SM FEW022 FEW200 23/17 A3008 RMK AO2 SLP181 T02280167


Station Type Date Time Source
KDSM Decoded METAR 2022/07/03 13:54 UTC NOAA

DES MOINES INTERNATIONAL, IA, United States (KDSM) 41-32N 93-40W 295M
Jul 03, 2022 - 09:54 AM EDT / 2022.07.03 1354 UTC
Wind: from the SSE (150 degrees) at 8 MPH (7 KT):0
Visibility: 10 mile(s):0
Sky conditions: mostly clear
Temperature: 73.0 F (22.8 C)
Dew Point: 62.1 F (16.7 C)
Relative Humidity: 68%
Pressure (altimeter): 30.08 in. Hg (1018 hPa)
ob: KDSM 031354Z 15007KT 10SM FEW022 FEW200 23/17 A3008 RMK AO2 SLP181 T02280167
cycle: 14

Station Type Date Time Source
KDSM TAF 2022/07/03 12:22 UTC NOAA

TAF KDSM 031120Z 0312/0412 15005KT P6SM SCT015
FM031700 16010G18KT P6SM FEW050
FM040300 14008KT P6SM SCT250
FM041000 16007KT P6SM VCTS BKN080CB BKN130

Example: see airport list